Althea — 9HAQ7 — position and weather

sailwx.info

Track history (hours):
 
Tides and Currents Weather Stations Pressure Air Temp Water Temp Dewpoint Dewpoint Depression Visibility Wind Speed Wind Dir Waves Ship Positions

Althea

Last reported at 2015-May-23 22:25 UTC. Time now 2015-May-24 23:25 UTC.
Position N 35°56' W 010°47'.

Length 170 m; draft 9.6 m.

Type: Cargo ship. MMSI: 215047000.

Date/timePositionNaut miles runAvg speedWind from/ knotsBaromVisibWave heightAir tempDewpointWater temp
2015-May-23 22:25N 35°56' W 010°47'2411.5
2015-May-23 20:22N 35°55' W 011°16'1011.5
2015-May-23 19:32N 35°55' W 011°28'1311.3
2015-May-23 18:24N 35°55' W 011°44'2011.1
2015-May-23 16:33N 35°56' W 012°09'1110.7
2015-May-23 15:31N 35°56' W 012°23'19610.3
2015-May-22 20:29N 35°55' W 016°25'1110.8
2015-May-22 19:27N 35°56' W 016°38'2111.2
2015-May-22 17:33N 35°56' W 017°05'33411.8
2015-May-21 13:09N 35°06' W 023°50'3212.5
2015-May-21 10:33N 34°60' W 024°29'1812.2
2015-May-21 09:05N 34°55' W 024°50'610.2
2015-May-21 08:31N 34°55' W 024°57'1212.2
2015-May-21 07:31N 34°52' W 025°12'2612.1
2015-May-21 05:24N 34°47' W 025°42'3912.3
2015-May-21 02:13N 34°40' W 026°29'912.7
2015-May-21 01:29N 34°38' W 026°40'  
Track history (hours):
 
Tides and Currents Weather Stations Pressure Air Temp Water Temp Dewpoint Dewpoint Depression Visibility Wind Speed Wind Dir Waves Ship Positions

Althea

Last reported at 2015-May-23 22:25 UTC. Time now 2015-May-24 23:25 UTC.
Position N 35°56' W 010°47'.

Length 170 m; draft 9.6 m.

Type: Cargo ship. MMSI: 215047000.

Date/timePositionNaut miles runAvg speedWind from/ knotsBaromVisibWave heightAir tempDewpointWater temp
2015-May-23 22:25N 35°56' W 010°47'2411.5
2015-May-23 20:22N 35°55' W 011°16'1011.5
2015-May-23 19:32N 35°55' W 011°28'1311.3
2015-May-23 18:24N 35°55' W 011°44'2011.1
2015-May-23 16:33N 35°56' W 012°09'1110.7
2015-May-23 15:31N 35°56' W 012°23'19610.3
2015-May-22 20:29N 35°55' W 016°25'1110.8
2015-May-22 19:27N 35°56' W 016°38'2111.2
2015-May-22 17:33N 35°56' W 017°05'33411.8
2015-May-21 13:09N 35°06' W 023°50'3212.5
2015-May-21 10:33N 34°60' W 024°29'1812.2
2015-May-21 09:05N 34°55' W 024°50'610.2
2015-May-21 08:31N 34°55' W 024°57'1212.2
2015-May-21 07:31N 34°52' W 025°12'2612.1
2015-May-21 05:24N 34°47' W 025°42'3912.3
2015-May-21 02:13N 34°40' W 026°29'912.7
2015-May-21 01:29N 34°38' W 026°40'  

Dump ship's entire track history